sensor_id;sensor_type;location;lat;lon;timestamp;pressure;altitude;pressure_sealevel;temperature;humidity
67397;BME280;57728;50.448;18.824;2022-07-22T00:01:47;97985.75;;;23.74;41.19
67397;BME280;57728;50.448;18.824;2022-07-22T00:03:48;97977.94;;;23.76;41.15
67397;BME280;57728;50.448;18.824;2022-07-22T00:05:50;97974.81;;;23.78;41.88
67397;BME280;57728;50.448;18.824;2022-07-22T00:07:52;97974.75;;;23.74;41.64
67397;BME280;57728;50.448;18.824;2022-07-22T00:09:53;97982.16;;;23.70;41.25
67397;BME280;57728;50.448;18.824;2022-07-22T00:11:54;97983.69;;;23.68;41.79
67397;BME280;57728;50.448;18.824;2022-07-22T00:13:56;97980.50;;;23.66;41.76
67397;BME280;57728;50.448;18.824;2022-07-22T00:15:57;97981.72;;;23.68;42.14
67397;BME280;57728;50.448;18.824;2022-07-22T00:17:59;97977.41;;;23.67;42.00
67397;BME280;57728;50.448;18.824;2022-07-22T00:20:00;97968.41;;;23.70;41.96
67397;BME280;57728;50.448;18.824;2022-07-22T00:22:01;97977.47;;;23.71;42.26
67397;BME280;57728;50.448;18.824;2022-07-22T00:24:04;97972.69;;;23.68;42.17
67397;BME280;57728;50.448;18.824;2022-07-22T00:26:05;97967.91;;;23.65;41.82
67397;BME280;57728;50.448;18.824;2022-07-22T00:28:06;97964.69;;;23.59;42.55
67397;BME280;57728;50.448;18.824;2022-07-22T00:30:08;97968.09;;;23.52;42.75
67397;BME280;57728;50.448;18.824;2022-07-22T00:32:10;97972.78;;;23.52;42.22
67397;BME280;57728;50.448;18.824;2022-07-22T00:34:11;97975.16;;;23.53;42.96
67397;BME280;57728;50.448;18.824;2022-07-22T00:36:13;97972.00;;;23.51;42.42
67397;BME280;57728;50.448;18.824;2022-07-22T00:38:14;97973.59;;;23.52;41.94
67397;BME280;57728;50.448;18.824;2022-07-22T00:40:16;97963.44;;;23.56;42.80
67397;BME280;57728;50.448;18.824;2022-07-22T00:42:18;97970.47;;;23.54;42.48
67397;BME280;57728;50.448;18.824;2022-07-22T00:44:19;97963.31;;;23.49;42.99
67397;BME280;57728;50.448;18.824;2022-07-22T00:46:20;97970.72;;;23.45;42.67
67397;BME280;57728;50.448;18.824;2022-07-22T00:48:22;97981.28;;;23.43;41.94
67397;BME280;57728;50.448;18.824;2022-07-22T00:50:23;97982.16;;;23.47;41.73
67397;BME280;57728;50.448;18.824;2022-07-22T00:52:25;97986.47;;;23.48;42.12
67397;BME280;57728;50.448;18.824;2022-07-22T00:54:28;97983.00;;;23.51;41.65
67397;BME280;57728;50.448;18.824;2022-07-22T00:56:29;97977.97;;;23.57;42.45
67397;BME280;57728;50.448;18.824;2022-07-22T00:58:31;97985.06;;;23.58;41.91
67397;BME280;57728;50.448;18.824;2022-07-22T01:00:33;97974.44;;;23.56;41.04
67397;BME280;57728;50.448;18.824;2022-07-22T01:02:34;97974.00;;;23.54;42.32
67397;BME280;57728;50.448;18.824;2022-07-22T01:04:36;97976.28;;;23.49;42.49
67397;BME280;57728;50.448;18.824;2022-07-22T01:06:38;97980.50;;;23.43;42.91
67397;BME280;57728;50.448;18.824;2022-07-22T01:08:39;97974.94;;;23.39;43.00
67397;BME280;57728;50.448;18.824;2022-07-22T01:10:41;97984.94;;;23.28;43.70
67397;BME280;57728;50.448;18.824;2022-07-22T01:12:43;97992.38;;;23.04;44.04
67397;BME280;57728;50.448;18.824;2022-07-22T01:14:44;97983.53;;;22.76;45.35
67397;BME280;57728;50.448;18.824;2022-07-22T01:16:46;97982.28;;;22.54;45.85
67397;BME280;57728;50.448;18.824;2022-07-22T01:18:48;97992.53;;;22.37;46.16
67397;BME280;57728;50.448;18.824;2022-07-22T01:20:49;97980.59;;;22.30;46.34
67397;BME280;57728;50.448;18.824;2022-07-22T01:22:50;97976.66;;;22.27;46.97
67397;BME280;57728;50.448;18.824;2022-07-22T01:24:53;97975.31;;;22.21;47.02
67397;BME280;57728;50.448;18.824;2022-07-22T01:26:54;97976.50;;;22.20;46.49
67397;BME280;57728;50.448;18.824;2022-07-22T01:28:55;97969.91;;;22.25;46.44
67397;BME280;57728;50.448;18.824;2022-07-22T01:30:57;97967.25;;;22.28;46.00
67397;BME280;57728;50.448;18.824;2022-07-22T01:32:58;97975.19;;;22.33;46.10
67397;BME280;57728;50.448;18.824;2022-07-22T01:34:59;97971.41;;;22.38;45.78
67397;BME280;57728;50.448;18.824;2022-07-22T01:37:02;97966.78;;;22.42;45.73
67397;BME280;57728;50.448;18.824;2022-07-22T01:39:03;97973.94;;;22.47;45.42
67397;BME280;57728;50.448;18.824;2022-07-22T01:41:05;97967.28;;;22.48;45.40
67397;BME280;57728;50.448;18.824;2022-07-22T01:43:08;97974.34;;;22.49;45.70
67397;BME280;57728;50.448;18.824;2022-07-22T01:45:10;97977.09;;;22.49;46.15
67397;BME280;57728;50.448;18.824;2022-07-22T01:47:11;97981.44;;;22.50;45.60
67397;BME280;57728;50.448;18.824;2022-07-22T01:49:13;97975.59;;;22.51;45.84
67397;BME280;57728;50.448;18.824;2022-07-22T01:51:16;97981.16;;;22.55;45.95
67397;BME280;57728;50.448;18.824;2022-07-22T01:53:17;97981.25;;;22.58;46.17
67397;BME280;57728;50.448;18.824;2022-07-22T01:55:21;97980.06;;;22.59;46.15
67397;BME280;57728;50.448;18.824;2022-07-22T01:57:22;97985.56;;;22.59;45.96
67397;BME280;57728;50.448;18.824;2022-07-22T01:59:26;97985.91;;;22.58;46.41
67397;BME280;57728;50.448;18.824;2022-07-22T02:01:28;97991.41;;;22.58;46.59
67397;BME280;57728;50.448;18.824;2022-07-22T02:03:29;97988.31;;;22.59;46.85
67397;BME280;57728;50.448;18.824;2022-07-22T02:05:30;97983.91;;;22.55;46.52
67397;BME280;57728;50.448;18.824;2022-07-22T02:07:38;97989.75;;;22.53;46.79
67397;BME280;57728;50.448;18.824;2022-07-22T02:09:40;97993.66;;;22.52;46.74
67397;BME280;57728;50.448;18.824;2022-07-22T02:11:41;98002.59;;;22.49;46.74
67397;BME280;57728;50.448;18.824;2022-07-22T02:13:44;98002.09;;;22.44;47.18
67397;BME280;57728;50.448;18.824;2022-07-22T02:15:45;98004.75;;;22.40;47.51
67397;BME280;57728;50.448;18.824;2022-07-22T02:17:46;98006.56;;;22.32;48.11
67397;BME280;57728;50.448;18.824;2022-07-22T02:19:48;98013.84;;;22.25;48.08
67397;BME280;57728;50.448;18.824;2022-07-22T02:21:50;98017.22;;;22.18;48.45
67397;BME280;57728;50.448;18.824;2022-07-22T02:23:51;98014.28;;;22.11;49.04
67397;BME280;57728;50.448;18.824;2022-07-22T02:25:54;98009.41;;;22.04;49.08
67397;BME280;57728;50.448;18.824;2022-07-22T02:27:55;98005.81;;;22.00;49.27
67397;BME280;57728;50.448;18.824;2022-07-22T02:29:56;98014.31;;;21.95;49.55
67397;BME280;57728;50.448;18.824;2022-07-22T02:31:58;98013.44;;;21.91;50.00
67397;BME280;57728;50.448;18.824;2022-07-22T02:33:59;98003.53;;;21.86;50.13
67397;BME280;57728;50.448;18.824;2022-07-22T02:36:03;98006.19;;;21.83;49.99
67397;BME280;57728;50.448;18.824;2022-07-22T02:38:06;98013.16;;;21.80;50.36
67397;BME280;57728;50.448;18.824;2022-07-22T02:40:09;98017.84;;;21.80;50.30
67397;BME280;57728;50.448;18.824;2022-07-22T02:42:10;98025.66;;;21.78;50.43
67397;BME280;57728;50.448;18.824;2022-07-22T02:44:13;98024.22;;;21.68;50.67
67397;BME280;57728;50.448;18.824;2022-07-22T02:46:15;98031.84;;;21.59;51.11
67397;BME280;57728;50.448;18.824;2022-07-22T02:48:16;98032.91;;;21.54;51.70
67397;BME280;57728;50.448;18.824;2022-07-22T02:50:18;98045.72;;;21.50;51.31
67397;BME280;57728;50.448;18.824;2022-07-22T02:52:20;98051.38;;;21.42;51.67
67397;BME280;57728;50.448;18.824;2022-07-22T02:54:21;98053.53;;;21.36;51.75
67397;BME280;57728;50.448;18.824;2022-07-22T02:56:24;98063.38;;;21.25;52.13
67397;BME280;57728;50.448;18.824;2022-07-22T02:58:25;98070.53;;;21.13;52.50
67397;BME280;57728;50.448;18.824;2022-07-22T03:00:26;98071.13;;;21.07;52.80
67397;BME280;57728;50.448;18.824;2022-07-22T03:02:29;98071.63;;;20.97;53.43
67397;BME280;57728;50.448;18.824;2022-07-22T03:04:30;98062.06;;;20.90;53.26
67397;BME280;57728;50.448;18.824;2022-07-22T03:06:32;98054.19;;;20.89;53.67
67397;BME280;57728;50.448;18.824;2022-07-22T03:08:46;98053.06;;;20.90;53.74
67397;BME280;57728;50.448;18.824;2022-07-22T03:10:49;98058.63;;;20.94;53.72
67397;BME280;57728;50.448;18.824;2022-07-22T03:12:50;98060.66;;;20.97;53.74
67397;BME280;57728;50.448;18.824;2022-07-22T03:14:52;98075.25;;;21.01;53.40
67397;BME280;57728;50.448;18.824;2022-07-22T03:16:54;98096.25;;;20.97;53.72
67397;BME280;57728;50.448;18.824;2022-07-22T03:18:56;98098.34;;;20.87;53.97
67397;BME280;57728;50.448;18.824;2022-07-22T03:20:58;98112.97;;;20.79;54.30
67397;BME280;57728;50.448;18.824;2022-07-22T03:22:59;98120.19;;;20.72;54.70
67397;BME280;57728;50.448;18.824;2022-07-22T03:25:01;98115.47;;;20.60;55.30
67397;BME280;57728;50.448;18.824;2022-07-22T03:27:03;98104.78;;;20.55;55.76
67397;BME280;57728;50.448;18.824;2022-07-22T03:29:06;98106.72;;;20.54;56.23
67397;BME280;57728;50.448;18.824;2022-07-22T03:31:08;98107.16;;;20.56;56.43
67397;BME280;57728;50.448;18.824;2022-07-22T03:33:10;98110.69;;;20.57;56.61
67397;BME280;57728;50.448;18.824;2022-07-22T03:35:14;98101.00;;;20.59;56.57
67397;BME280;57728;50.448;18.824;2022-07-22T03:37:19;98097.72;;;20.66;56.32
67397;BME280;57728;50.448;18.824;2022-07-22T03:39:21;98102.59;;;20.73;56.53
67397;BME280;57728;50.448;18.824;2022-07-22T03:41:23;98106.72;;;20.79;56.16
67397;BME280;57728;50.448;18.824;2022-07-22T03:43:25;98095.63;;;20.87;56.00
67397;BME280;57728;50.448;18.824;2022-07-22T03:45:27;98096.97;;;20.94;56.21
67397;BME280;57728;50.448;18.824;2022-07-22T03:47:28;98106.28;;;21.05;55.88
67397;BME280;57728;50.448;18.824;2022-07-22T03:49:30;98100.69;;;21.13;55.53
67397;BME280;57728;50.448;18.824;2022-07-22T03:51:33;98100.44;;;21.19;55.25
67397;BME280;57728;50.448;18.824;2022-07-22T03:53:34;98097.88;;;21.26;55.11
67397;BME280;57728;50.448;18.824;2022-07-22T03:55:37;98094.53;;;21.32;55.25
67397;BME280;57728;50.448;18.824;2022-07-22T03:57:40;98104.81;;;21.35;55.51
67397;BME280;57728;50.448;18.824;2022-07-22T03:59:47;98093.16;;;21.38;55.10
67397;BME280;57728;50.448;18.824;2022-07-22T04:01:49;98090.97;;;21.44;55.15
67397;BME280;57728;50.448;18.824;2022-07-22T04:03:51;98100.09;;;21.48;55.24
67397;BME280;57728;50.448;18.824;2022-07-22T04:06:02;98095.06;;;21.50;55.17
67397;BME280;57728;50.448;18.824;2022-07-22T04:08:18;98099.03;;;21.53;55.23
67397;BME280;57728;50.448;18.824;2022-07-22T04:10:22;98088.25;;;21.60;55.12
67397;BME280;57728;50.448;18.824;2022-07-22T04:12:23;98091.53;;;21.65;54.64
67397;BME280;57728;50.448;18.824;2022-07-22T04:14:43;98089.69;;;21.70;54.42
67397;BME280;57728;50.448;18.824;2022-07-22T04:16:46;98087.47;;;21.75;54.68
67397;BME280;57728;50.448;18.824;2022-07-22T04:18:47;98085.25;;;21.81;54.14
67397;BME280;57728;50.448;18.824;2022-07-22T04:20:49;98083.06;;;21.86;54.29
67397;BME280;57728;50.448;18.824;2022-07-22T04:22:57;98082.00;;;21.91;54.35
67397;BME280;57728;50.448;18.824;2022-07-22T04:24:59;98083.59;;;21.92;54.36
67397;BME280;57728;50.448;18.824;2022-07-22T04:27:00;98075.00;;;21.94;54.04
67397;BME280;57728;50.448;18.824;2022-07-22T04:29:06;98075.44;;;21.96;54.35
67397;BME280;57728;50.448;18.824;2022-07-22T04:31:08;98077.91;;;22.01;53.62
67397;BME280;57728;50.448;18.824;2022-07-22T04:33:12;98085.03;;;22.02;53.92
67397;BME280;57728;50.448;18.824;2022-07-22T04:35:14;98088.56;;;22.02;54.19
67397;BME280;57728;50.448;18.824;2022-07-22T04:37:23;98071.38;;;22.05;53.77
67397;BME280;57728;50.448;18.824;2022-07-22T04:39:25;98069.50;;;22.09;53.75
67397;BME280;57728;50.448;18.824;2022-07-22T04:41:31;98066.63;;;22.18;53.78
67397;BME280;57728;50.448;18.824;2022-07-22T04:43:33;98069.50;;;22.25;53.37
67397;BME280;57728;50.448;18.824;2022-07-22T04:45:34;98067.31;;;22.31;53.33
67397;BME280;57728;50.448;18.824;2022-07-22T04:47:37;98074.56;;;22.39;52.66
67397;BME280;57728;50.448;18.824;2022-07-22T04:49:38;98077.81;;;22.45;52.72
67397;BME280;57728;50.448;18.824;2022-07-22T04:51:41;98082.22;;;22.49;52.37
67397;BME280;57728;50.448;18.824;2022-07-22T04:53:47;98086.13;;;22.48;52.18
67397;BME280;57728;50.448;18.824;2022-07-22T04:55:50;98081.81;;;22.47;52.51
67397;BME280;57728;50.448;18.824;2022-07-22T04:57:51;98079.06;;;22.47;52.44
67397;BME280;57728;50.448;18.824;2022-07-22T04:59:54;98080.28;;;22.50;52.67
67397;BME280;57728;50.448;18.824;2022-07-22T05:01:55;98083.97;;;22.57;52.03
67397;BME280;57728;50.448;18.824;2022-07-22T05:03:56;98080.97;;;22.62;51.94
67397;BME280;57728;50.448;18.824;2022-07-22T05:05:58;98081.09;;;22.70;51.94
67397;BME280;57728;50.448;18.824;2022-07-22T05:08:06;98089.50;;;22.77;52.08
67397;BME280;57728;50.448;18.824;2022-07-22T05:10:09;98082.66;;;22.86;51.71
67397;BME280;57728;50.448;18.824;2022-07-22T05:12:11;98077.41;;;22.97;51.80
67397;BME280;57728;50.448;18.824;2022-07-22T05:14:12;98071.75;;;23.09;51.56
67397;BME280;57728;50.448;18.824;2022-07-22T05:16:14;98074.66;;;23.17;50.78
67397;BME280;57728;50.448;18.824;2022-07-22T05:18:16;98071.44;;;23.34;51.10
67397;BME280;57728;50.448;18.824;2022-07-22T05:20:17;98054.78;;;23.46;50.65
67397;BME280;57728;50.448;18.824;2022-07-22T05:22:18;98054.56;;;23.55;50.34
67397;BME280;57728;50.448;18.824;2022-07-22T05:24:21;98055.09;;;23.60;50.40
67397;BME280;57728;50.448;18.824;2022-07-22T05:26:22;98052.88;;;23.70;49.80
67397;BME280;57728;50.448;18.824;2022-07-22T05:28:25;98049.03;;;23.74;49.72
67397;BME280;57728;50.448;18.824;2022-07-22T05:30:27;98055.38;;;23.78;49.68
67397;BME280;57728;50.448;18.824;2022-07-22T05:32:28;98050.00;;;23.85;49.10
67397;BME280;57728;50.448;18.824;2022-07-22T05:34:34;98051.66;;;23.90;49.11
67397;BME280;57728;50.448;18.824;2022-07-22T05:36:36;98049.00;;;23.97;49.25
67397;BME280;57728;50.448;18.824;2022-07-22T05:38:37;98051.03;;;24.00;49.39
67397;BME280;57728;50.448;18.824;2022-07-22T05:40:39;98057.84;;;24.10;49.03
67397;BME280;57728;50.448;18.824;2022-07-22T05:42:41;98061.53;;;24.18;48.90
67397;BME280;57728;50.448;18.824;2022-07-22T05:44:43;98060.94;;;24.28;48.88
67397;BME280;57728;50.448;18.824;2022-07-22T05:46:44;98066.16;;;24.37;48.17
67397;BME280;57728;50.448;18.824;2022-07-22T05:48:46;98061.19;;;24.46;47.74
67397;BME280;57728;50.448;18.824;2022-07-22T05:50:47;98065.97;;;24.49;47.69
67397;BME280;57728;50.448;18.824;2022-07-22T05:52:48;98071.88;;;24.51;47.71
67397;BME280;57728;50.448;18.824;2022-07-22T05:54:50;98085.19;;;24.45;46.95
67397;BME280;57728;50.448;18.824;2022-07-22T05:56:52;98083.94;;;24.39;47.18
67397;BME280;57728;50.448;18.824;2022-07-22T05:58:53;98093.66;;;24.33;47.22
67397;BME280;57728;50.448;18.824;2022-07-22T06:00:57;98094.69;;;24.25;47.63
67397;BME280;57728;50.448;18.824;2022-07-22T06:02:59;98084.41;;;24.22;48.12
67397;BME280;57728;50.448;18.824;2022-07-22T06:05:00;98079.63;;;24.19;48.43
67397;BME280;57728;50.448;18.824;2022-07-22T06:07:03;98081.53;;;24.15;47.84
67397;BME280;57728;50.448;18.824;2022-07-22T06:09:07;98080.72;;;24.14;49.02
67397;BME280;57728;50.448;18.824;2022-07-22T06:11:08;98081.53;;;24.15;48.73
67397;BME280;57728;50.448;18.824;2022-07-22T06:13:10;98079.63;;;24.19;48.29
67397;BME280;57728;50.448;18.824;2022-07-22T06:15:13;98079.31;;;24.24;48.48
67397;BME280;57728;50.448;18.824;2022-07-22T06:17:14;98084.16;;;24.30;48.52
67397;BME280;57728;50.448;18.824;2022-07-22T06:19:16;98077.97;;;24.37;47.97
67397;BME280;57728;50.448;18.824;2022-07-22T06:21:17;98089.47;;;24.43;48.77
67397;BME280;57728;50.448;18.824;2022-07-22T06:23:19;98091.47;;;24.46;47.75
67397;BME280;57728;50.448;18.824;2022-07-22T06:25:21;98097.03;;;24.49;47.92
67397;BME280;57728;50.448;18.824;2022-07-22T06:27:22;98091.59;;;24.53;47.82
67397;BME280;57728;50.448;18.824;2022-07-22T06:29:25;98087.31;;;24.55;47.45
67397;BME280;57728;50.448;18.824;2022-07-22T06:31:27;98092.53;;;24.64;48.00
67397;BME280;57728;50.448;18.824;2022-07-22T06:33:29;98085.56;;;24.74;47.30
67397;BME280;57728;50.448;18.824;2022-07-22T06:35:31;98078.16;;;24.78;46.93
67397;BME280;57728;50.448;18.824;2022-07-22T06:37:33;98074.22;;;24.79;46.80
67397;BME280;57728;50.448;18.824;2022-07-22T06:39:35;98091.59;;;24.83;46.99
67397;BME280;57728;50.448;18.824;2022-07-22T06:41:46;98090.44;;;24.84;47.01
67397;BME280;57728;50.448;18.824;2022-07-22T06:44:17;98082.97;;;24.84;46.38
67397;BME280;57728;50.448;18.824;2022-07-22T06:46:31;98087.75;;;24.88;46.53
67397;BME280;57728;50.448;18.824;2022-07-22T06:48:33;98085.84;;;24.92;46.95
67397;BME280;57728;50.448;18.824;2022-07-22T06:50:35;98087.50;;;24.96;46.54
67397;BME280;57728;50.448;18.824;2022-07-22T06:52:41;98100.94;;;25.01;46.90
67397;BME280;57728;50.448;18.824;2022-07-22T06:54:43;98107.28;;;25.05;47.03
67397;BME280;57728;50.448;18.824;2022-07-22T06:56:50;98108.91;;;25.10;46.96
67397;BME280;57728;50.448;18.824;2022-07-22T06:58:56;98106.59;;;25.12;46.38
67397;BME280;57728;50.448;18.824;2022-07-22T07:00:57;98102.22;;;25.11;46.85
67397;BME280;57728;50.448;18.824;2022-07-22T07:03:05;98096.41;;;25.16;47.40
67397;BME280;57728;50.448;18.824;2022-07-22T07:05:06;98096.91;;;25.25;47.38
67397;BME280;57728;50.448;18.824;2022-07-22T07:07:08;98095.09;;;25.40;47.40
67397;BME280;57728;50.448;18.824;2022-07-22T07:09:23;98096.81;;;25.52;46.23
67397;BME280;57728;50.448;18.824;2022-07-22T07:11:36;98111.84;;;25.58;46.31
67397;BME280;57728;50.448;18.824;2022-07-22T07:13:45;98112.56;;;25.55;45.68
67397;BME280;57728;50.448;18.824;2022-07-22T07:15:47;98102.28;;;25.48;45.94
67397;BME280;57728;50.448;18.824;2022-07-22T07:17:50;98111.31;;;25.45;46.09
67397;BME280;57728;50.448;18.824;2022-07-22T07:19:51;98112.06;;;25.42;46.01
67397;BME280;57728;50.448;18.824;2022-07-22T07:21:53;98116.06;;;25.48;45.83
67397;BME280;57728;50.448;18.824;2022-07-22T07:23:54;98114.19;;;25.56;45.56
67397;BME280;57728;50.448;18.824;2022-07-22T07:25:56;98124.94;;;25.65;45.70
67397;BME280;57728;50.448;18.824;2022-07-22T07:27:58;98117.09;;;25.70;45.10
67397;BME280;57728;50.448;18.824;2022-07-22T07:30:17;98122.63;;;25.70;45.62
67397;BME280;57728;50.448;18.824;2022-07-22T07:32:18;98127.19;;;25.59;45.54
67397;BME280;57728;50.448;18.824;2022-07-22T07:34:20;98121.28;;;25.57;45.95
67397;BME280;57728;50.448;18.824;2022-07-22T07:36:21;98114.66;;;25.62;45.68
67397;BME280;57728;50.448;18.824;2022-07-22T07:38:24;98122.59;;;25.67;45.45
67397;BME280;57728;50.448;18.824;2022-07-22T07:40:27;98118.34;;;25.73;45.16
67397;BME280;57728;50.448;18.824;2022-07-22T07:42:32;98123.53;;;25.81;45.34
67397;BME280;57728;50.448;18.824;2022-07-22T07:44:33;98118.06;;;25.85;44.76
67397;BME280;57728;50.448;18.824;2022-07-22T07:46:36;98118.44;;;25.87;44.30
67397;BME280;57728;50.448;18.824;2022-07-22T07:48:37;98113.72;;;25.88;44.44
67397;BME280;57728;50.448;18.824;2022-07-22T07:50:38;98117.34;;;25.95;44.91
67397;BME280;57728;50.448;18.824;2022-07-22T07:52:43;98114.28;;;26.08;44.29
67397;BME280;57728;50.448;18.824;2022-07-22T07:54:48;98114.41;;;26.18;43.89
67397;BME280;57728;50.448;18.824;2022-07-22T07:56:49;98119.69;;;26.34;44.61
67397;BME280;57728;50.448;18.824;2022-07-22T07:58:52;98122.09;;;26.43;43.44
67397;BME280;57728;50.448;18.824;2022-07-22T08:00:53;98117.03;;;26.48;42.98
67397;BME280;57728;50.448;18.824;2022-07-22T08:02:54;98119.47;;;26.57;43.43
67397;BME280;57728;50.448;18.824;2022-07-22T08:05:00;98120.25;;;26.58;42.68
67397;BME280;57728;50.448;18.824;2022-07-22T08:07:04;98117.91;;;26.63;43.25
67397;BME280;57728;50.448;18.824;2022-07-22T08:09:07;98116.81;;;26.78;43.08
67397;BME280;57728;50.448;18.824;2022-07-22T08:11:13;98110.53;;;26.85;42.14
67397;BME280;57728;50.448;18.824;2022-07-22T08:13:33;98112.50;;;26.81;42.78
67397;BME280;57728;50.448;18.824;2022-07-22T08:15:53;98119.59;;;26.82;42.41
67397;BME280;57728;50.448;18.824;2022-07-22T08:17:57;98127.22;;;26.92;43.64
67397;BME280;57728;50.448;18.824;2022-07-22T08:20:00;98121.34;;;27.05;42.35
67397;BME280;57728;50.448;18.824;2022-07-22T08:22:01;98124.91;;;27.12;41.77
67397;BME280;57728;50.448;18.824;2022-07-22T08:24:05;98124.97;;;27.23;42.17
67397;BME280;57728;50.448;18.824;2022-07-22T08:26:16;98124.63;;;27.35;41.56
67397;BME280;57728;50.448;18.824;2022-07-22T08:28:18;98120.28;;;27.38;41.96
67397;BME280;57728;50.448;18.824;2022-07-22T08:30:20;98125.00;;;27.34;41.32
67397;BME280;57728;50.448;18.824;2022-07-22T08:32:23;98128.94;;;27.29;41.67
67397;BME280;57728;50.448;18.824;2022-07-22T08:34:25;98119.88;;;27.28;41.14
67397;BME280;57728;50.448;18.824;2022-07-22T08:36:28;98127.81;;;27.41;40.94
67397;BME280;57728;50.448;18.824;2022-07-22T08:38:30;98130.63;;;27.55;40.52
67397;BME280;57728;50.448;18.824;2022-07-22T08:40:33;98126.66;;;27.52;40.66
67397;BME280;57728;50.448;18.824;2022-07-22T08:42:39;98124.31;;;27.51;40.15
67397;BME280;57728;50.448;18.824;2022-07-22T08:44:41;98124.34;;;27.62;40.64
67397;BME280;57728;50.448;18.824;2022-07-22T08:46:45;98130.69;;;27.69;40.88
67397;BME280;57728;50.448;18.824;2022-07-22T08:48:50;98137.81;;;27.77;40.37
67397;BME280;57728;50.448;18.824;2022-07-22T08:51:20;98135.47;;;27.90;39.95
67397;BME280;57728;50.448;18.824;2022-07-22T08:53:31;98132.34;;;28.10;38.99
67397;BME280;57728;50.448;18.824;2022-07-22T08:55:47;98135.53;;;28.19;39.45
67397;BME280;57728;50.448;18.824;2022-07-22T08:57:50;98142.63;;;28.20;39.11
67397;BME280;57728;50.448;18.824;2022-07-22T08:59:57;98137.88;;;28.28;39.53
67397;BME280;57728;50.448;18.824;2022-07-22T09:02:07;98137.50;;;28.40;39.97
67397;BME280;57728;50.448;18.824;2022-07-22T09:04:15;98137.88;;;28.49;38.68
67397;BME280;57728;50.448;18.824;2022-07-22T09:06:18;98138.28;;;28.55;39.54
67397;BME280;57728;50.448;18.824;2022-07-22T09:08:23;98142.25;;;28.75;40.57
67397;BME280;57728;50.448;18.824;2022-07-22T09:10:33;98126.38;;;28.93;39.30
67397;BME280;57728;50.448;18.824;2022-07-22T09:13:09;98131.44;;;29.09;38.16
67397;BME280;57728;50.448;18.824;2022-07-22T09:15:54;98128.63;;;29.20;37.68
67397;BME280;57728;50.448;18.824;2022-07-22T09:18:21;98123.06;;;29.38;37.16
67397;BME280;57728;50.448;18.824;2022-07-22T09:20:46;98124.63;;;29.39;35.90
67397;BME280;57728;50.448;18.824;2022-07-22T09:23:20;98125.38;;;29.46;36.44
67397;BME280;57728;50.448;18.824;2022-07-22T09:28:13;98132.75;;;29.75;34.83
67397;BME280;57728;50.448;18.824;2022-07-22T09:30:51;98132.38;;;29.69;35.28
67397;BME280;57728;50.448;18.824;2022-07-22T09:32:54;98138.25;;;29.89;35.31
67397;BME280;57728;50.448;18.824;2022-07-22T09:35:18;98134.50;;;30.13;35.20
67397;BME280;57728;50.448;18.824;2022-07-22T09:37:26;98130.03;;;30.27;34.07
67397;BME280;57728;50.448;18.824;2022-07-22T09:39:29;98134.34;;;30.38;33.88
67397;BME280;57728;50.448;18.824;2022-07-22T09:41:34;98136.66;;;30.43;34.15
67397;BME280;57728;50.448;18.824;2022-07-22T09:43:36;98131.38;;;30.56;33.58
67397;BME280;57728;50.448;18.824;2022-07-22T09:45:48;98130.06;;;31.09;32.75
67397;BME280;57728;50.448;18.824;2022-07-22T09:47:56;98131.81;;;31.61;32.92
67397;BME280;57728;50.448;18.824;2022-07-22T09:50:30;98131.91;;;32.35;31.29
67397;BME280;57728;50.448;18.824;2022-07-22T09:52:54;98139.03;;;33.06;29.78
67397;BME280;57728;50.448;18.824;2022-07-22T09:55:01;98135.63;;;33.75;30.11
67397;BME280;57728;50.448;18.824;2022-07-22T09:57:02;98138.75;;;34.29;27.59
67397;BME280;57728;50.448;18.824;2022-07-22T09:59:04;98134.03;;;34.59;26.99
67397;BME280;57728;50.448;18.824;2022-07-22T10:01:12;98136.44;;;34.90;26.20
67397;BME280;57728;50.448;18.824;2022-07-22T10:03:31;98133.31;;;35.17;26.10
67397;BME280;57728;50.448;18.824;2022-07-22T10:05:39;98125.94;;;35.36;24.77
67397;BME280;57728;50.448;18.824;2022-07-22T10:07:44;98131.94;;;35.50;24.52
67397;BME280;57728;50.448;18.824;2022-07-22T10:09:47;98127.94;;;35.77;24.53
67397;BME280;57728;50.448;18.824;2022-07-22T10:11:50;98128.72;;;36.03;24.22
67397;BME280;57728;50.448;18.824;2022-07-22T10:13:56;98131.38;;;36.32;23.72
67397;BME280;57728;50.448;18.824;2022-07-22T10:15:58;98130.81;;;36.50;23.57
67397;BME280;57728;50.448;18.824;2022-07-22T10:18:06;98131.81;;;36.56;22.74
67397;BME280;57728;50.448;18.824;2022-07-22T10:20:23;98130.72;;;36.75;23.27
67397;BME280;57728;50.448;18.824;2022-07-22T10:24:59;98125.38;;;37.47;23.53
67397;BME280;57728;50.448;18.824;2022-07-22T10:27:01;98120.00;;;38.02;23.11
67397;BME280;57728;50.448;18.824;2022-07-22T10:31:34;98120.44;;;38.41;21.55
67397;BME280;57728;50.448;18.824;2022-07-22T10:33:35;98115.97;;;38.12;21.37
67397;BME280;57728;50.448;18.824;2022-07-22T10:35:59;98115.97;;;38.12;21.06
67397;BME280;57728;50.448;18.824;2022-07-22T10:38:06;98111.09;;;37.94;21.09
67397;BME280;57728;50.448;18.824;2022-07-22T10:40:17;98112.38;;;37.71;21.79
67397;BME280;57728;50.448;18.824;2022-07-22T10:45:07;98105.75;;;37.87;20.81
67397;BME280;57728;50.448;18.824;2022-07-22T10:47:08;98114.19;;;37.65;21.32
67397;BME280;57728;50.448;18.824;2022-07-22T10:49:10;98110.72;;;37.08;21.69
67397;BME280;57728;50.448;18.824;2022-07-22T10:51:14;98103.44;;;36.54;22.06
67397;BME280;57728;50.448;18.824;2022-07-22T11:00:52;98097.25;;;34.44;24.79
67397;BME280;57728;50.448;18.824;2022-07-22T11:02:53;98099.22;;;33.95;25.54
67397;BME280;57728;50.448;18.824;2022-07-22T11:04:55;98094.41;;;33.79;25.84
67397;BME280;57728;50.448;18.824;2022-07-22T11:06:57;98088.22;;;33.88;25.82
67397;BME280;57728;50.448;18.824;2022-07-22T11:09:03;98090.53;;;34.25;25.07